Time;durP1;ratioP1;P1;durP2;ratioP2;P2;SDS_P1;SDS_P2;PMS_P1;PMS_P2;Temp;Humidity;BMP_temperature;BMP_pressure;BME280_temperature;BME280_humidity;BME280_pressure;Samples;Min_cycle;Max_cycle;Signal;HPM_P1;HPM_P2
2024/01/03 00:00:53;;;;;;;22.50;3.03;;;;;;;;;;5067763;28;20031;-80
2024/01/03 00:03:19;;;;;;;20.33;2.45;;;;;;;;;;5069263;28;20424;-80
2024/01/03 00:05:46;;;;;;;17.02;2.72;;;;;;;;;;5052429;28;20067;-79
2024/01/03 00:08:21;;;;;;;9.75;2.38;;;;;;;;;;5053437;28;20059;-80
2024/01/03 00:10:51;;;;;;;10.23;1.90;;;;;;;;;;5070974;28;20020;-80
2024/01/03 00:13:30;;;;;;;12.88;2.05;;;;;;;;;;5071895;28;20022;-80
2024/01/03 00:16:06;;;;;;;19.10;2.20;;;;;;;;;;5052051;28;20314;-80
2024/01/03 00:18:39;;;;;;;15.48;2.20;;;;;;;;;;5053479;28;20013;-80
2024/01/03 00:21:10;;;;;;;19.17;2.15;;;;;;;;;;5031721;28;20474;-80
2024/01/03 00:23:44;;;;;;;17.33;1.92;;;;;;;;;;5032268;28;20014;-80
2024/01/03 00:26:10;;;;;;;22.15;2.50;;;;;;;;;;5033254;28;20018;-79
2024/01/03 00:28:37;;;;;;;23.38;3.25;;;;;;;;;;5033461;28;20044;-80
2024/01/03 00:31:03;;;;;;;16.90;2.15;;;;;;;;;;5070749;28;20017;-80
2024/01/03 00:33:29;;;;;;;21.70;2.60;;;;;;;;;;5071078;28;20120;-80
2024/01/03 00:35:56;;;;;;;21.83;2.65;;;;;;;;;;5055206;28;20481;-79
2024/01/03 00:38:23;;;;;;;24.27;2.78;;;;;;;;;;5050978;28;20048;-79
2024/01/03 00:40:57;;;;;;;20.70;2.67;;;;;;;;;;5065113;28;20086;-80
2024/01/03 00:43:23;;;;;;;24.77;3.05;;;;;;;;;;5072622;28;20102;-80
2024/01/03 00:45:49;;;;;;;21.95;2.63;;;;;;;;;;5057687;28;20098;-80
2024/01/03 00:48:16;;;;;;;24.10;2.92;;;;;;;;;;5051724;28;20051;-80
2024/01/03 00:50:42;;;;;;;14.15;2.20;;;;;;;;;;5063889;28;20016;-80
2024/01/03 00:53:09;;;;;;;21.08;2.95;;;;;;;;;;5071591;28;20017;-80
2024/01/03 00:55:35;;;;;;;27.55;3.05;;;;;;;;;;5061586;28;20017;-80
2024/01/03 00:58:01;;;;;;;24.83;2.92;;;;;;;;;;5052210;28;20017;-79
2024/01/03 01:00:28;;;;;;;23.30;2.80;;;;;;;;;;5061860;28;20032;-80
2024/01/03 01:02:54;;;;;;;28.88;4.15;;;;;;;;;;5072187;28;20017;-79
2024/01/03 01:05:20;;;;;;;20.00;3.03;;;;;;;;;;5063424;28;20524;-80
2024/01/03 01:07:46;;;;;;;25.25;2.80;;;;;;;;;;5052242;28;20016;-80
2024/01/03 01:10:12;;;;;;;21.58;2.85;;;;;;;;;;5057187;28;20013;-80
2024/01/03 01:12:38;;;;;;;19.10;1.83;;;;;;;;;;5072274;28;20055;-80
2024/01/03 01:15:04;;;;;;;27.73;3.58;;;;;;;;;;5065623;28;20017;-80
2024/01/03 01:17:30;;;;;;;22.83;2.70;;;;;;;;;;5051077;28;20020;-80
2024/01/03 01:19:56;;;;;;;27.20;3.28;;;;;;;;;;5053605;28;20125;-80
2024/01/03 01:22:23;;;;;;;18.90;3.22;;;;;;;;;;5070494;28;20111;-80
2024/01/03 01:24:49;;;;;;;19.83;2.42;;;;;;;;;;5071063;28;20013;-80
2024/01/03 01:27:16;;;;;;;18.08;2.67;;;;;;;;;;5051525;28;20028;-80
2024/01/03 01:29:42;;;;;;;31.33;2.85;;;;;;;;;;5052379;28;20021;-79
2024/01/03 01:32:08;;;;;;;20.05;2.80;;;;;;;;;;5068463;28;20021;-80
2024/01/03 01:34:34;;;;;;;19.90;1.92;;;;;;;;;;5070331;28;20072;-80
2024/01/03 01:37:00;;;;;;;15.82;1.90;;;;;;;;;;5055047;28;20023;-79
2024/01/03 01:39:26;;;;;;;16.65;2.15;;;;;;;;;;5051870;28;20029;-79
2024/01/03 01:41:52;;;;;;;15.45;2.42;;;;;;;;;;5066054;28;20024;-79
2024/01/03 01:44:18;;;;;;;12.65;2.78;;;;;;;;;;5071883;28;20016;-80
2024/01/03 01:46:45;;;;;;;15.85;2.50;;;;;;;;;;5057050;28;20055;-79
2024/01/03 01:49:11;;;;;;;17.30;1.92;;;;;;;;;;5051509;28;20111;-80
2024/01/03 01:51:38;;;;;;;18.42;2.00;;;;;;;;;;5061303;28;20025;-79
2024/01/03 01:54:05;;;;;;;17.48;2.45;;;;;;;;;;5071375;28;20518;-80
2024/01/03 01:56:32;;;;;;;25.60;2.42;;;;;;;;;;5061722;28;20025;-79
2024/01/03 01:58:58;;;;;;;19.73;2.75;;;;;;;;;;5051307;28;20013;-79
2024/01/03 02:01:24;;;;;;;11.77;1.63;;;;;;;;;;5058455;28;20585;-80
2024/01/03 02:03:51;;;;;;;16.48;2.83;;;;;;;;;;5069957;28;20032;-79
2024/01/03 02:06:17;;;;;;;16.75;2.03;;;;;;;;;;5069247;28;20020;-79
2024/01/03 02:08:43;;;;;;;19.38;2.30;;;;;;;;;;5069864;28;20013;-80
2024/01/03 02:11:10;;;;;;;17.77;2.15;;;;;;;;;;5066342;28;20020;-79
2024/01/03 02:13:36;;;;;;;15.82;1.90;;;;;;;;;;5050063;28;20041;-80
2024/01/03 02:16:02;;;;;;;12.82;1.77;;;;;;;;;;5052867;28;20095;-80
2024/01/03 02:18:28;;;;;;;22.75;2.42;;;;;;;;;;5069691;28;20043;-80
2024/01/03 02:20:57;;;;;;;21.40;3.00;;;;;;;;;;5069003;28;20111;-80
2024/01/03 02:23:23;;;;;;;11.90;1.75;;;;;;;;;;5048944;28;20057;-80
2024/01/03 02:25:49;;;;;;;13.15;2.10;;;;;;;;;;5050692;28;20066;-80
2024/01/03 02:28:16;;;;;;;12.98;1.98;;;;;;;;;;5066076;28;20017;-80
2024/01/03 02:30:44;;;;;;;13.15;1.80;;;;;;;;;;5070605;28;20224;-80
2024/01/03 02:33:11;;;;;;;10.70;1.60;;;;;;;;;;5052848;28;20020;-80
2024/01/03 02:35:37;;;;;;;14.07;2.13;;;;;;;;;;5048871;28;20064;-80
2024/01/03 02:38:03;;;;;;;11.98;1.48;;;;;;;;;;5064825;28;20083;-80
2024/01/03 02:40:29;;;;;;;19.58;2.30;;;;;;;;;;5070549;28;20031;-79
2024/01/03 02:42:55;;;;;;;16.60;1.92;;;;;;;;;;5056103;28;20108;-79
2024/01/03 02:45:21;;;;;;;15.02;1.92;;;;;;;;;;5049009;28;20017;-79
2024/01/03 02:47:47;;;;;;;11.35;2.00;;;;;;;;;;5061944;28;20016;-80
2024/01/03 02:50:13;;;;;;;14.60;2.10;;;;;;;;;;5068876;28;20013;-79
2024/01/03 02:52:39;;;;;;;10.43;1.48;;;;;;;;;;5058692;28;20017;-79
2024/01/03 02:55:05;;;;;;;14.80;2.38;;;;;;;;;;5049043;28;20024;-79
2024/01/03 02:57:31;;;;;;;16.15;2.08;;;;;;;;;;5057539;28;20017;-80
2024/01/03 02:59:57;;;;;;;15.52;1.80;;;;;;;;;;5070290;28;20016;-80
2024/01/03 03:02:23;;;;;;;11.88;1.80;;;;;;;;;;5061360;28;20091;-79
2024/01/03 03:04:49;;;;;;;11.98;1.90;;;;;;;;;;5049621;28;20009;-79
2024/01/03 03:07:15;;;;;;;13.23;1.50;;;;;;;;;;5053869;28;20071;-80
2024/01/03 03:09:41;;;;;;;16.48;1.77;;;;;;;;;;5068989;28;20457;-79
2024/01/03 03:12:07;;;;;;;17.77;1.98;;;;;;;;;;5064495;28;20025;-79
2024/01/03 03:14:33;;;;;;;9.15;1.35;;;;;;;;;;5048698;28;20017;-79
2024/01/03 03:16:59;;;;;;;15.40;2.00;;;;;;;;;;5051174;28;20020;-79
2024/01/03 03:19:25;;;;;;;18.35;2.17;;;;;;;;;;5068718;28;20017;-80
2024/01/03 03:21:51;;;;;;;18.92;2.75;;;;;;;;;;5068770;28;20021;-79
2024/01/03 03:24:17;;;;;;;15.75;2.13;;;;;;;;;;5048558;28;20488;-80
2024/01/03 03:26:43;;;;;;;13.25;1.88;;;;;;;;;;5049782;28;20461;-79
2024/01/03 03:29:09;;;;;;;11.73;2.00;;;;;;;;;;5068066;28;20096;-80
2024/01/03 03:31:35;;;;;;;16.77;2.63;;;;;;;;;;5068614;28;20016;-80
2024/01/03 03:34:01;;;;;;;12.50;1.90;;;;;;;;;;5050403;28;20032;-79
2024/01/03 03:36:27;;;;;;;11.05;1.33;;;;;;;;;;5047954;28;20017;-79
2024/01/03 03:38:54;;;;;;;12.52;2.10;;;;;;;;;;5064423;28;20032;-80
2024/01/03 03:41:21;;;;;;;16.02;1.70;;;;;;;;;;5068446;28;20027;-80
2024/01/03 03:43:47;;;;;;;9.57;1.60;;;;;;;;;;5053887;28;20052;-82
2024/01/03 03:46:13;;;;;;;13.35;1.40;;;;;;;;;;5049451;28;20048;-80
2024/01/03 03:48:39;;;;;;;13.00;1.92;;;;;;;;;;5061084;28;20025;-80
2024/01/03 03:51:05;;;;;;;10.63;1.40;;;;;;;;;;5069246;28;20083;-79
2024/01/03 03:53:31;;;;;;;11.80;1.48;;;;;;;;;;5057475;28;20019;-80
2024/01/03 03:55:57;;;;;;;9.75;1.70;;;;;;;;;;5049539;28;20420;-79
2024/01/03 03:58:23;;;;;;;10.05;1.60;;;;;;;;;;5059175;28;20024;-79
2024/01/03 04:00:49;;;;;;;17.05;2.00;;;;;;;;;;5068414;28;20028;-80
2024/01/03 04:03:15;;;;;;;7.85;1.50;;;;;;;;;;5060000;28;20481;-80
2024/01/03 04:05:41;;;;;;;15.10;1.80;;;;;;;;;;5049062;28;20019;-80
2024/01/03 04:08:07;;;;;;;11.00;2.10;;;;;;;;;;5054689;28;20017;-80
2024/01/03 04:10:33;;;;;;;9.40;1.80;;;;;;;;;;5068109;28;20418;-80
2024/01/03 04:12:59;;;;;;;10.32;2.17;;;;;;;;;;5064061;28;20552;-79
2024/01/03 04:15:25;;;;;;;11.02;1.70;;;;;;;;;;5049288;28;20096;-79
2024/01/03 04:17:52;;;;;;;12.10;1.90;;;;;;;;;;5051531;28;20020;-79
2024/01/03 04:20:18;;;;;;;14.10;2.00;;;;;;;;;;5068729;28;20055;-80
2024/01/03 04:22:45;;;;;;;15.00;1.95;;;;;;;;;;5065827;28;20041;-80
2024/01/03 04:25:12;;;;;;;15.18;2.15;;;;;;;;;;5049166;28;20084;-79
2024/01/03 04:27:38;;;;;;;12.60;2.38;;;;;;;;;;5049879;28;20017;-80
2024/01/03 04:30:04;;;;;;;14.43;2.70;;;;;;;;;;5068086;28;20013;-80
2024/01/03 04:32:31;;;;;;;12.63;1.88;;;;;;;;;;5067976;28;20016;-80
2024/01/03 04:34:57;;;;;;;12.82;1.52;;;;;;;;;;5047866;28;20489;-79
2024/01/03 04:37:23;;;;;;;13.60;1.80;;;;;;;;;;5047430;28;20028;-79
2024/01/03 04:39:49;;;;;;;16.27;2.17;;;;;;;;;;5065043;28;20021;-80
2024/01/03 04:42:15;;;;;;;15.55;2.13;;;;;;;;;;5068480;28;20120;-80
2024/01/03 04:44:41;;;;;;;8.85;1.25;;;;;;;;;;5051236;28;20100;-80
2024/01/03 04:47:07;;;;;;;9.00;1.45;;;;;;;;;;5047945;28;20021;-80
2024/01/03 04:49:33;;;;;;;7.90;1.30;;;;;;;;;;5064063;28;20027;-80
2024/01/03 04:51:59;;;;;;;9.85;1.75;;;;;;;;;;5070996;28;20023;-80
2024/01/03 04:54:25;;;;;;;15.40;2.17;;;;;;;;;;5057586;28;20025;-80
2024/01/03 04:56:51;;;;;;;17.83;2.05;;;;;;;;;;5051341;28;20049;-79
2024/01/03 04:59:17;;;;;;;13.57;2.20;;;;;;;;;;5062833;28;20024;-79
2024/01/03 05:01:43;;;;;;;20.08;2.17;;;;;;;;;;5072766;28;20078;-81
2024/01/03 05:04:10;;;;;;;26.95;2.95;;;;;;;;;;5062204;28;20377;-79
2024/01/03 05:06:37;;;;;;;26.98;3.45;;;;;;;;;;5050697;28;20025;-79
2024/01/03 05:09:03;;;;;;;37.72;4.70;;;;;;;;;;5059530;28;20016;-79
2024/01/03 05:11:29;;;;;;;36.90;4.93;;;;;;;;;;5071273;28;20016;-80
2024/01/03 05:13:56;;;;;;;24.95;3.70;;;;;;;;;;5064278;28;20017;-79
2024/01/03 05:16:22;;;;;;;30.20;3.60;;;;;;;;;;5052548;28;20045;-79
2024/01/03 05:18:48;;;;;;;30.77;4.32;;;;;;;;;;5057607;28;20058;-80
2024/01/03 05:21:15;;;;;;;33.70;3.38;;;;;;;;;;5070526;28;20077;-80
2024/01/03 05:23:40;;;;;;;28.17;3.17;;;;;;;;;;5067981;28;20016;-79
2024/01/03 05:26:07;;;;;;;28.00;3.50;;;;;;;;;;5050560;28;20104;-80
2024/01/03 05:28:33;;;;;;;28.55;4.50;;;;;;;;;;5053254;28;20092;-80
2024/01/03 05:30:59;;;;;;;26.98;3.40;;;;;;;;;;5070875;28;20058;-80
2024/01/03 05:33:25;;;;;;;30.88;4.57;;;;;;;;;;5069869;28;20020;-80
2024/01/03 05:35:51;;;;;;;37.13;4.45;;;;;;;;;;5051525;28;20030;-79
2024/01/03 05:38:18;;;;;;;33.67;3.95;;;;;;;;;;5050526;28;20070;-79
2024/01/03 05:40:45;;;;;;;32.60;3.63;;;;;;;;;;5071325;28;20051;-79
2024/01/03 05:43:14;;;;;;;27.42;3.33;;;;;;;;;;5071901;28;20013;-80
2024/01/03 05:45:40;;;;;;;23.48;3.15;;;;;;;;;;5052711;28;20017;-80
2024/01/03 05:48:06;;;;;;;37.55;4.18;;;;;;;;;;5052045;28;20040;-78
2024/01/03 05:50:32;;;;;;;26.38;4.63;;;;;;;;;;5051261;28;20017;-79
2024/01/03 05:52:58;;;;;;;28.60;3.53;;;;;;;;;;5050329;28;20066;-79
2024/01/03 05:55:24;;;;;;;30.45;4.65;;;;;;;;;;5065257;28;20027;-79
2024/01/03 05:57:51;;;;;;;29.90;3.03;;;;;;;;;;5070384;28;20016;-80
2024/01/03 06:00:17;;;;;;;30.58;4.28;;;;;;;;;;5056103;28;20100;-79
2024/01/03 06:02:43;;;;;;;25.60;2.97;;;;;;;;;;5051262;28;20066;-79
2024/01/03 06:05:11;;;;;;;31.10;3.53;;;;;;;;;;5063701;28;20017;-80
2024/01/03 06:07:37;;;;;;;30.40;3.45;;;;;;;;;;5071080;28;20456;-79
2024/01/03 06:10:03;;;;;;;31.73;3.05;;;;;;;;;;5058348;28;20168;-80
2024/01/03 06:12:30;;;;;;;25.65;3.20;;;;;;;;;;5050041;28;20021;-80
2024/01/03 06:14:56;;;;;;;35.05;3.80;;;;;;;;;;5060099;28;20566;-80
2024/01/03 06:17:22;;;;;;;36.55;3.25;;;;;;;;;;5053565;28;20031;-81
2024/01/03 06:19:48;;;;;;;33.35;3.97;;;;;;;;;;5057776;28;20016;-81
2024/01/03 06:22:14;;;;;;;28.13;3.72;;;;;;;;;;5069726;28;20028;-80
2024/01/03 06:24:40;;;;;;;27.00;3.53;;;;;;;;;;5065813;28;20026;-79
2024/01/03 06:27:06;;;;;;;26.77;2.80;;;;;;;;;;5053801;28;20009;-79
2024/01/03 06:29:32;;;;;;;28.15;4.22;;;;;;;;;;5051226;28;20022;-79
2024/01/03 06:31:58;;;;;;;28.52;3.63;;;;;;;;;;5048415;28;20151;-79
2024/01/03 06:34:24;;;;;;;23.27;3.53;;;;;;;;;;5050267;28;20048;-79
2024/01/03 06:36:50;;;;;;;26.50;3.58;;;;;;;;;;5048371;28;20024;-80
2024/01/03 06:39:16;;;;;;;31.45;3.40;;;;;;;;;;5050802;28;20075;-79
2024/01/03 06:41:42;;;;;;;29.45;3.58;;;;;;;;;;5049522;28;20029;-79
2024/01/03 06:44:08;;;;;;;24.80;3.13;;;;;;;;;;5049224;28;20017;-79
2024/01/03 06:46:34;;;;;;;28.52;2.88;;;;;;;;;;5049600;28;20457;-80
2024/01/03 06:49:00;;;;;;;32.55;3.55;;;;;;;;;;5048369;28;20167;-79
2024/01/03 06:51:26;;;;;;;21.13;2.55;;;;;;;;;;5048349;28;20056;-79
2024/01/03 06:53:52;;;;;;;27.60;2.60;;;;;;;;;;5048858;28;20067;-80
2024/01/03 06:56:23;;;;;;;27.77;3.55;;;;;;;;;;5067357;28;20025;-81
2024/01/03 06:58:52;;;;;;;23.73;3.25;;;;;;;;;;5069147;28;20035;-80
2024/01/03 07:01:18;;;;;;;24.85;3.03;;;;;;;;;;5051538;28;20112;-79
2024/01/03 07:03:44;;;;;;;33.00;3.38;;;;;;;;;;5050385;28;20044;-80
2024/01/03 07:06:10;;;;;;;29.10;3.17;;;;;;;;;;5063415;28;20008;-79
2024/01/03 07:08:36;;;;;;;23.83;4.45;;;;;;;;;;5070162;28;20017;-81
2024/01/03 07:11:02;;;;;;;25.05;3.22;;;;;;;;;;5055039;28;20079;-81
2024/01/03 07:13:28;;;;;;;27.35;3.60;;;;;;;;;;5048145;28;20288;-82
2024/01/03 07:15:54;;;;;;;25.55;3.03;;;;;;;;;;5062331;28;20066;-81
2024/01/03 07:18:20;;;;;;;26.70;3.00;;;;;;;;;;5068837;28;20017;-81
2024/01/03 07:20:46;;;;;;;27.48;3.63;;;;;;;;;;5068357;28;20028;-81
2024/01/03 07:23:12;;;;;;;28.67;3.35;;;;;;;;;;5070127;28;20013;-82
2024/01/03 07:25:38;;;;;;;29.70;3.08;;;;;;;;;;5059354;28;20028;-80
2024/01/03 07:28:04;;;;;;;28.05;3.20;;;;;;;;;;5048046;28;20015;-81
2024/01/03 07:30:30;;;;;;;28.25;3.28;;;;;;;;;;5056228;28;20017;-82
2024/01/03 07:32:57;;;;;;;31.00;4.22;;;;;;;;;;5068629;28;20013;-80
2024/01/03 07:35:24;;;;;;;21.13;2.40;;;;;;;;;;5062447;28;20385;-81
2024/01/03 07:37:50;;;;;;;31.90;3.00;;;;;;;;;;5048130;28;20559;-80
2024/01/03 07:40:16;;;;;;;23.73;2.78;;;;;;;;;;5054457;28;20039;-79
2024/01/03 07:42:42;;;;;;;24.88;3.45;;;;;;;;;;5069797;28;20028;-81
2024/01/03 07:45:08;;;;;;;31.00;2.80;;;;;;;;;;5064934;28;20393;-80
2024/01/03 07:47:34;;;;;;;27.92;3.53;;;;;;;;;;5048283;28;20097;-80
2024/01/03 07:50:00;;;;;;;32.10;3.45;;;;;;;;;;5051305;28;20646;-80
2024/01/03 07:52:27;;;;;;;25.83;2.75;;;;;;;;;;5058216;28;20032;-80
2024/01/03 07:54:53;;;;;;;21.90;3.20;;;;;;;;;;5048094;28;20147;-80
2024/01/03 07:57:19;;;;;;;20.63;2.63;;;;;;;;;;5069288;28;20017;-81
2024/01/03 07:59:45;;;;;;;21.48;3.15;;;;;;;;;;5069166;28;20025;-81
2024/01/03 08:02:12;;;;;;;22.60;2.85;;;;;;;;;;5048645;28;20033;-81
2024/01/03 08:04:39;;;;;;;21.83;2.92;;;;;;;;;;5049084;28;20013;-80
2024/01/03 08:07:05;;;;;;;27.52;3.75;;;;;;;;;;5054635;28;20013;-80
2024/01/03 08:09:32;;;;;;;28.67;3.17;;;;;;;;;;5048701;28;20009;-80
2024/01/03 08:11:59;;;;;;;30.80;3.95;;;;;;;;;;5052402;28;20484;-80
2024/01/03 08:14:25;;;;;;;26.90;3.10;;;;;;;;;;5050371;28;20017;-80
2024/01/03 08:16:51;;;;;;;25.83;3.33;;;;;;;;;;5050882;28;20549;-80
2024/01/03 08:19:17;;;;;;;20.08;2.97;;;;;;;;;;5048940;28;20029;-80
2024/01/03 08:21:43;;;;;;;26.20;2.63;;;;;;;;;;5048686;28;20550;-80
2024/01/03 08:24:09;;;;;;;23.25;2.67;;;;;;;;;;5046956;28;20017;-80
2024/01/03 08:26:35;;;;;;;23.17;2.83;;;;;;;;;;5052448;28;20016;-80
2024/01/03 08:29:01;;;;;;;25.33;3.60;;;;;;;;;;5051285;28;20604;-80
2024/01/03 08:31:27;;;;;;;31.17;3.40;;;;;;;;;;5051511;28;20013;-80
2024/01/03 08:33:53;;;;;;;23.73;3.42;;;;;;;;;;5051358;28;20013;-80
2024/01/03 08:36:19;;;;;;;24.90;3.25;;;;;;;;;;5053462;28;20535;-80
2024/01/03 08:38:45;;;;;;;25.23;2.70;;;;;;;;;;5051247;28;20017;-80
2024/01/03 08:41:18;;;;;;;21.27;2.63;;;;;;;;;;5055742;28;20039;-80
2024/01/03 08:43:44;;;;;;;13.95;2.28;;;;;;;;;;5050446;28;20028;-82
2024/01/03 08:46:10;;;;;;;25.65;3.35;;;;;;;;;;5052778;28;20013;-80
2024/01/03 08:48:42;;;;;;;25.42;2.67;;;;;;;;;;5047972;28;20135;-80
2024/01/03 08:51:17;;;;;;;20.35;2.75;;;;;;;;;;5050427;28;20028;-80
2024/01/03 08:53:43;;;;;;;21.38;3.25;;;;;;;;;;5067711;28;20092;-80
2024/01/03 08:56:27;;;;;;;19.92;3.38;;;;;;;;;;5050963;28;20469;-80
2024/01/03 08:58:53;;;;;;;19.77;3.20;;;;;;;;;;5058267;28;20096;-80
2024/01/03 09:01:20;;;;;;;17.63;2.70;;;;;;;;;;5062141;28;20371;-80
2024/01/03 09:03:46;;;;;;;26.33;3.60;;;;;;;;;;5050123;28;20017;-80
2024/01/03 09:06:13;;;;;;;18.83;2.55;;;;;;;;;;5054303;28;20016;-80
2024/01/03 09:08:39;;;;;;;19.67;2.10;;;;;;;;;;5062210;28;20020;-80
2024/01/03 09:11:12;;;;;;;16.83;2.50;;;;;;;;;;5049222;28;20029;-80
2024/01/03 09:13:39;;;;;;;22.00;2.97;;;;;;;;;;5050939;28;20499;-80
2024/01/03 09:16:06;;;;;;;17.35;1.95;;;;;;;;;;5045495;28;20408;-80
2024/01/03 09:18:31;;;;;;;20.45;2.35;;;;;;;;;;5049706;28;20013;-80
2024/01/03 09:21:00;;;;;;;15.75;2.08;;;;;;;;;;5049354;28;20106;-80
2024/01/03 09:23:27;;;;;;;18.15;2.50;;;;;;;;;;5069214;28;20396;-80
2024/01/03 09:25:55;;;;;;;21.73;2.67;;;;;;;;;;5069689;28;20103;-80
2024/01/03 09:28:21;;;;;;;17.70;2.28;;;;;;;;;;5045604;28;20017;-80
2024/01/03 09:30:47;;;;;;;17.15;3.90;;;;;;;;;;5029225;28;20017;-80
2024/01/03 09:33:13;;;;;;;22.88;2.70;;;;;;;;;;5068055;28;20500;-80
2024/01/03 09:35:40;;;;;;;20.73;2.80;;;;;;;;;;5069533;28;20560;-81
2024/01/03 09:38:06;;;;;;;23.10;2.80;;;;;;;;;;5052386;28;20425;-80
2024/01/03 09:40:33;;;;;;;20.50;2.70;;;;;;;;;;5049056;28;20044;-80
2024/01/03 09:43:01;;;;;;;22.15;2.47;;;;;;;;;;5066699;28;20023;-80
2024/01/03 09:45:27;;;;;;;24.13;3.17;;;;;;;;;;5069127;28;20055;-80
2024/01/03 09:47:53;;;;;;;21.83;2.92;;;;;;;;;;5054393;28;20392;-80
2024/01/03 09:50:19;;;;;;;17.45;2.15;;;;;;;;;;5049539;28;20013;-80
2024/01/03 09:52:45;;;;;;;16.15;1.63;;;;;;;;;;5062860;28;20028;-80
2024/01/03 09:55:11;;;;;;;17.15;2.05;;;;;;;;;;5070609;28;20030;-80
2024/01/03 09:57:39;;;;;;;13.50;1.83;;;;;;;;;;5056764;28;20048;-81
2024/01/03 10:00:06;;;;;;;19.90;2.20;;;;;;;;;;5048974;28;20025;-80
2024/01/03 10:02:31;;;;;;;15.55;2.30;;;;;;;;;;5058729;28;20107;-80
2024/01/03 10:04:58;;;;;;;18.67;2.30;;;;;;;;;;5068808;28;20108;-80
2024/01/03 10:07:33;;;;;;;22.02;2.78;;;;;;;;;;5050159;28;20071;-80
2024/01/03 10:09:59;;;;;;;20.52;2.33;;;;;;;;;;5048964;28;20017;-80
2024/01/03 10:12:29;;;;;;;20.85;3.78;;;;;;;;;;5054094;28;20074;-80
2024/01/03 10:14:56;;;;;;;23.90;2.60;;;;;;;;;;5067823;28;20008;-82
2024/01/03 10:17:22;;;;;;;25.25;3.05;;;;;;;;;;5053319;28;20036;-81
2024/01/03 10:19:48;;;;;;;18.55;2.88;;;;;;;;;;5070378;28;20087;-81
2024/01/03 10:22:19;;;;;;;19.98;2.65;;;;;;;;;;5054119;28;20112;-81
2024/01/03 10:24:48;;;;;;;21.50;2.40;;;;;;;;;;5050811;28;20013;-80
2024/01/03 10:27:14;;;;;;;24.70;2.95;;;;;;;;;;5051554;28;20092;-81
2024/01/03 10:29:40;;;;;;;24.48;3.63;;;;;;;;;;5049016;28;20092;-81
2024/01/03 10:32:09;;;;;;;28.92;3.95;;;;;;;;;;5049848;28;20117;-80
2024/01/03 10:34:36;;;;;;;24.63;2.90;;;;;;;;;;5048606;28;20069;-81
2024/01/03 10:37:04;;;;;;;24.27;2.75;;;;;;;;;;5050874;28;20036;-81
2024/01/03 10:39:31;;;;;;;17.90;3.08;;;;;;;;;;5049634;28;20013;-81
2024/01/03 10:41:57;;;;;;;26.17;2.92;;;;;;;;;;5051198;28;20029;-81
2024/01/03 10:44:24;;;;;;;22.40;2.70;;;;;;;;;;5056525;28;20481;-80
2024/01/03 10:46:55;;;;;;;18.40;3.00;;;;;;;;;;5050834;28;20012;-82
2024/01/03 10:49:21;;;;;;;22.88;3.67;;;;;;;;;;5067968;28;20024;-81
2024/01/03 10:51:50;;;;;;;19.02;2.90;;;;;;;;;;5067020;28;20027;-81
2024/01/03 10:54:17;;;;;;;18.98;2.67;;;;;;;;;;5048803;28;20021;-81
2024/01/03 10:57:02;;;;;;;23.52;3.17;;;;;;;;;;5051639;28;20093;-81
2024/01/03 10:59:31;;;;;;;27.90;3.58;;;;;;;;;;5046386;28;20358;-81
2024/01/03 11:02:15;;;;;;;19.85;2.33;;;;;;;;;;5045766;28;20114;-82
2024/01/03 11:04:47;;;;;;;24.83;3.03;;;;;;;;;;5048662;28;20024;-81
2024/01/03 11:07:15;;;;;;;18.63;2.65;;;;;;;;;;5051080;28;20495;-82
2024/01/03 11:09:41;;;;;;;22.98;3.88;;;;;;;;;;5068930;28;20016;-81
2024/01/03 11:12:07;;;;;;;20.52;3.08;;;;;;;;;;5068159;28;20528;-81
2024/01/03 11:14:34;;;;;;;19.13;2.70;;;;;;;;;;5048924;28;20102;-81
2024/01/03 11:17:00;;;;;;;16.60;3.03;;;;;;;;;;5048332;28;20158;-81
2024/01/03 11:19:30;;;;;;;20.77;2.42;;;;;;;;;;5047939;28;20017;-81
2024/01/03 11:21:56;;;;;;;20.98;2.67;;;;;;;;;;5045607;28;20032;-84
2024/01/03 11:24:22;;;;;;;22.27;2.58;;;;;;;;;;5050660;28;20025;-83
2024/01/03 11:26:55;;;;;;;18.77;2.53;;;;;;;;;;5050252;28;20021;-82
2024/01/03 11:29:44;;;;;;;16.75;2.53;;;;;;;;;;5049713;28;20020;-82
2024/01/03 11:32:14;;;;;;;16.40;2.72;;;;;;;;;;5049795;28;20013;-81
2024/01/03 11:34:44;;;;;;;17.60;2.80;;;;;;;;;;5067074;28;20040;-81
2024/01/03 11:37:10;;;;;;;;;;;;;;;;;;5067865;28;20043;-82
2024/01/03 11:39:40;;;;;;;14.60;2.28;;;;;;;;;;5067225;28;19908;-81
2024/01/03 11:42:06;;;;;;;14.85;2.53;;;;;;;;;;5057061;28;20032;-81
2024/01/03 11:44:32;;;;;;;18.23;2.28;;;;;;;;;;5066924;28;20023;-81
2024/01/03 11:47:02;;;;;;;16.33;2.38;;;;;;;;;;5069246;28;20092;-81
2024/01/03 11:49:28;;;;;;;12.50;2.22;;;;;;;;;;5051789;28;20063;-80
2024/01/03 11:51:55;;;;;;;19.25;2.72;;;;;;;;;;5047739;28;20032;-81
2024/01/03 11:54:21;;;;;;;13.38;2.17;;;;;;;;;;5064270;28;20044;-81
2024/01/03 11:56:47;;;;;;;14.55;2.15;;;;;;;;;;5067643;28;20024;-81
2024/01/03 11:59:13;;;;;;;18.77;2.40;;;;;;;;;;5056170;28;20016;-81
2024/01/03 12:01:54;;;;;;;13.45;2.00;;;;;;;;;;5051351;28;20090;-81
2024/01/03 12:04:20;;;;;;;16.63;2.42;;;;;;;;;;5065576;28;20048;-81
2024/01/03 12:06:46;;;;;;;19.58;2.85;;;;;;;;;;5072555;28;20052;-81
2024/01/03 12:09:13;;;;;;;17.63;2.35;;;;;;;;;;5060333;28;20009;-81
2024/01/03 12:11:39;;;;;;;15.93;2.15;;;;;;;;;;5052757;28;20021;-81
2024/01/03 12:14:05;;;;;;;21.02;2.92;;;;;;;;;;5062561;28;20028;-81
2024/01/03 12:16:31;;;;;;;14.63;2.70;;;;;;;;;;5071402;28;20087;-82
2024/01/03 12:18:57;;;;;;;16.02;3.13;;;;;;;;;;5062265;28;20017;-81
2024/01/03 12:21:23;;;;;;;14.05;2.13;;;;;;;;;;5052331;28;20032;-81
2024/01/03 12:23:55;;;;;;;16.42;2.35;;;;;;;;;;5059283;28;20056;-82
2024/01/03 12:26:21;;;;;;;18.10;2.13;;;;;;;;;;5071457;28;20020;-81
2024/01/03 12:28:49;;;;;;;14.88;2.15;;;;;;;;;;5064047;28;20009;-82
2024/01/03 12:31:18;;;;;;;16.23;2.28;;;;;;;;;;5053153;28;20016;-80
2024/01/03 12:33:44;;;;;;;17.02;2.88;;;;;;;;;;5057255;28;20361;-83
2024/01/03 12:36:10;;;;;;;11.38;1.88;;;;;;;;;;5071054;28;20047;-81
2024/01/03 12:38:36;;;;;;;10.75;2.20;;;;;;;;;;5058894;28;20021;-81
2024/01/03 12:41:03;;;;;;;15.90;2.50;;;;;;;;;;5049924;28;20029;-82
2024/01/03 12:43:29;;;;;;;13.63;2.00;;;;;;;;;;5055226;28;20017;-81
2024/01/03 12:45:55;;;;;;;16.38;2.33;;;;;;;;;;5066355;28;20437;-82
2024/01/03 12:48:21;;;;;;;11.48;1.90;;;;;;;;;;5052568;28;20158;-82
2024/01/03 12:50:47;;;;;;;12.73;2.03;;;;;;;;;;5071649;28;20069;-82
2024/01/03 12:53:13;;;;;;;17.50;2.63;;;;;;;;;;5070842;28;20469;-82
2024/01/03 12:55:39;;;;;;;13.15;2.58;;;;;;;;;;5053973;28;20023;-82
2024/01/03 12:58:05;;;;;;;9.05;2.17;;;;;;;;;;5051491;28;20025;-82
2024/01/03 13:00:31;;;;;;;12.50;2.00;;;;;;;;;;5066441;28;20096;-82
2024/01/03 13:02:57;;;;;;;13.18;1.85;;;;;;;;;;5049376;28;20036;-82
2024/01/03 13:05:23;;;;;;;9.68;1.80;;;;;;;;;;5050609;28;20005;-82
2024/01/03 13:07:50;;;;;;;11.55;1.70;;;;;;;;;;5050069;28;20098;-82
2024/01/03 13:10:16;;;;;;;10.07;1.88;;;;;;;;;;5050194;28;20016;-82
2024/01/03 13:12:42;;;;;;;14.80;1.92;;;;;;;;;;5049006;28;20078;-82
2024/01/03 13:15:08;;;;;;;12.10;1.75;;;;;;;;;;5063045;28;20095;-82
2024/01/03 13:17:34;;;;;;;11.05;1.52;;;;;;;;;;5069599;28;20149;-82
2024/01/03 13:20:00;;;;;;;10.57;2.00;;;;;;;;;;5051285;28;20024;-82
2024/01/03 13:22:26;;;;;;;7.95;1.23;;;;;;;;;;5049738;28;20031;-83
2024/01/03 13:24:52;;;;;;;8.07;1.70;;;;;;;;;;5049608;28;20017;-82
2024/01/03 13:27:18;;;;;;;8.93;1.58;;;;;;;;;;5051057;28;20432;-82
2024/01/03 13:29:45;;;;;;;7.13;1.73;;;;;;;;;;5056823;28;20460;-82
2024/01/03 13:32:11;;;;;;;7.00;1.65;;;;;;;;;;5069274;28;20046;-82
2024/01/03 13:34:37;;;;;;;5.07;1.50;;;;;;;;;;5065367;28;20442;-81
2024/01/03 13:37:03;;;;;;;6.38;1.30;;;;;;;;;;5049551;28;20059;-81
2024/01/03 13:39:29;;;;;;;6.68;1.20;;;;;;;;;;5053637;28;20052;-82
2024/01/03 13:41:55;;;;;;;7.38;0.95;;;;;;;;;;5050414;28;20059;-82
2024/01/03 13:44:21;;;;;;;10.43;1.40;;;;;;;;;;5051342;28;20009;-82
2024/01/03 13:46:47;;;;;;;6.75;1.40;;;;;;;;;;5049103;28;20010;-81
2024/01/03 13:49:13;;;;;;;13.85;1.80;;;;;;;;;;5049027;28;20009;-82
2024/01/03 13:51:39;;;;;;;12.30;1.85;;;;;;;;;;5051529;28;20329;-82
2024/01/03 13:54:05;;;;;;;10.38;1.70;;;;;;;;;;5050373;28;20047;-82
2024/01/03 13:56:32;;;;;;;11.65;2.28;;;;;;;;;;5051328;28;20017;-81
2024/01/03 13:58:58;;;;;;;11.60;2.33;;;;;;;;;;5050801;28;20021;-82
2024/01/03 14:01:24;;;;;;;12.07;1.70;;;;;;;;;;5065016;28;20020;-82
2024/01/03 14:03:50;;;;;;;9.95;1.85;;;;;;;;;;5070886;28;20402;-82
2024/01/03 14:06:16;;;;;;;11.25;1.73;;;;;;;;;;5055855;28;20021;-82
2024/01/03 14:08:42;;;;;;;13.25;2.05;;;;;;;;;;5049218;28;20041;-82
2024/01/03 14:11:08;;;;;;;14.90;2.13;;;;;;;;;;5061927;28;20024;-82
2024/01/03 14:13:34;;;;;;;13.10;1.80;;;;;;;;;;5070611;28;20020;-82
2024/01/03 14:16:01;;;;;;;14.10;1.85;;;;;;;;;;5058692;28;20025;-82
2024/01/03 14:18:27;;;;;;;14.00;1.95;;;;;;;;;;5050608;28;20017;-82
2024/01/03 14:20:55;;;;;;;13.35;1.90;;;;;;;;;;5058585;28;20016;-82
2024/01/03 14:23:21;;;;;;;16.00;2.40;;;;;;;;;;5070451;28;20091;-80
2024/01/03 14:25:47;;;;;;;15.38;2.35;;;;;;;;;;5061619;28;20013;-81
2024/01/03 14:28:16;;;;;;;15.50;1.83;;;;;;;;;;5049299;28;20063;-81